sensor_id;sensor_type;location;lat;lon;timestamp;P1;durP1;ratioP1;P2;durP2;ratioP2
53714;SDS011;39608;55.630;37.864;2022-11-12T00:03:50;6.90;;;3.47;;
53714;SDS011;39608;55.630;37.864;2022-11-12T00:08:52;5.70;;;3.50;;
53714;SDS011;39608;55.630;37.864;2022-11-12T00:13:54;5.85;;;2.72;;
53714;SDS011;39608;55.630;37.864;2022-11-12T00:18:57;3.97;;;2.92;;
53714;SDS011;39608;55.630;37.864;2022-11-12T00:24:00;3.45;;;2.83;;
53714;SDS011;39608;55.630;37.864;2022-11-12T00:29:02;4.95;;;2.78;;
53714;SDS011;39608;55.630;37.864;2022-11-12T00:34:05;6.28;;;2.97;;
53714;SDS011;39608;55.630;37.864;2022-11-12T00:39:08;6.00;;;2.80;;
53714;SDS011;39608;55.630;37.864;2022-11-12T00:44:10;2.75;;;2.40;;
53714;SDS011;39608;55.630;37.864;2022-11-12T00:49:13;3.70;;;2.72;;
53714;SDS011;39608;55.630;37.864;2022-11-12T00:54:15;2.70;;;2.50;;
53714;SDS011;39608;55.630;37.864;2022-11-12T00:59:18;4.00;;;2.30;;
53714;SDS011;39608;55.630;37.864;2022-11-12T01:04:21;3.88;;;2.58;;
53714;SDS011;39608;55.630;37.864;2022-11-12T01:09:23;4.60;;;2.42;;
53714;SDS011;39608;55.630;37.864;2022-11-12T01:14:25;5.00;;;3.03;;
53714;SDS011;39608;55.630;37.864;2022-11-12T01:19:29;6.30;;;2.47;;
53714;SDS011;39608;55.630;37.864;2022-11-12T01:24:31;3.08;;;2.47;;
53714;SDS011;39608;55.630;37.864;2022-11-12T01:29:33;4.30;;;2.95;;
53714;SDS011;39608;55.630;37.864;2022-11-12T01:34:36;5.43;;;2.83;;
53714;SDS011;39608;55.630;37.864;2022-11-12T01:39:39;6.10;;;2.53;;
53714;SDS011;39608;55.630;37.864;2022-11-12T01:44:42;3.42;;;2.33;;
53714;SDS011;39608;55.630;37.864;2022-11-12T01:49:48;3.33;;;2.13;;
53714;SDS011;39608;55.630;37.864;2022-11-12T01:54:54;2.63;;;2.38;;
53714;SDS011;39608;55.630;37.864;2022-11-12T02:00:03;2.72;;;2.20;;
53714;SDS011;39608;55.630;37.864;2022-11-12T02:05:10;3.03;;;2.13;;
53714;SDS011;39608;55.630;37.864;2022-11-12T02:10:13;3.63;;;2.40;;
53714;SDS011;39608;55.630;37.864;2022-11-12T02:15:16;6.53;;;2.80;;
53714;SDS011;39608;55.630;37.864;2022-11-12T02:20:19;5.80;;;3.17;;
53714;SDS011;39608;55.630;37.864;2022-11-12T02:25:23;5.80;;;3.08;;
53714;SDS011;39608;55.630;37.864;2022-11-12T02:30:31;4.05;;;3.15;;
53714;SDS011;39608;55.630;37.864;2022-11-12T02:35:34;5.10;;;2.73;;
53714;SDS011;39608;55.630;37.864;2022-11-12T02:40:37;6.93;;;3.72;;
53714;SDS011;39608;55.630;37.864;2022-11-12T02:45:40;6.07;;;3.35;;
53714;SDS011;39608;55.630;37.864;2022-11-12T02:50:42;3.05;;;2.67;;
53714;SDS011;39608;55.630;37.864;2022-11-12T02:55:45;5.13;;;3.55;;
53714;SDS011;39608;55.630;37.864;2022-11-12T03:00:47;10.32;;;2.85;;
53714;SDS011;39608;55.630;37.864;2022-11-12T03:05:54;7.57;;;3.00;;
53714;SDS011;39608;55.630;37.864;2022-11-12T03:11:04;5.05;;;2.90;;
53714;SDS011;39608;55.630;37.864;2022-11-12T03:16:07;3.92;;;2.85;;
53714;SDS011;39608;55.630;37.864;2022-11-12T03:21:09;4.03;;;2.67;;
53714;SDS011;39608;55.630;37.864;2022-11-12T03:26:13;4.45;;;2.92;;
53714;SDS011;39608;55.630;37.864;2022-11-12T03:31:15;3.67;;;2.75;;
53714;SDS011;39608;55.630;37.864;2022-11-12T03:36:18;5.15;;;2.80;;
53714;SDS011;39608;55.630;37.864;2022-11-12T03:41:21;4.00;;;2.90;;
53714;SDS011;39608;55.630;37.864;2022-11-12T03:46:23;3.08;;;2.42;;
53714;SDS011;39608;55.630;37.864;2022-11-12T03:51:25;4.18;;;2.50;;
53714;SDS011;39608;55.630;37.864;2022-11-12T03:56:29;3.50;;;2.38;;
53714;SDS011;39608;55.630;37.864;2022-11-12T04:01:31;5.57;;;2.75;;
53714;SDS011;39608;55.630;37.864;2022-11-12T04:06:33;2.30;;;2.10;;
53714;SDS011;39608;55.630;37.864;2022-11-12T04:11:54;5.90;;;2.55;;
53714;SDS011;39608;55.630;37.864;2022-11-12T04:17:17;4.90;;;2.90;;
53714;SDS011;39608;55.630;37.864;2022-11-12T04:22:36;4.43;;;2.60;;
53714;SDS011;39608;55.630;37.864;2022-11-12T04:27:40;4.43;;;2.92;;
53714;SDS011;39608;55.630;37.864;2022-11-12T04:32:45;2.50;;;2.30;;
53714;SDS011;39608;55.630;37.864;2022-11-12T04:37:48;3.28;;;2.08;;
53714;SDS011;39608;55.630;37.864;2022-11-12T04:42:52;3.30;;;2.25;;
53714;SDS011;39608;55.630;37.864;2022-11-12T04:48:11;2.70;;;2.15;;
53714;SDS011;39608;55.630;37.864;2022-11-12T04:53:14;2.38;;;2.10;;
53714;SDS011;39608;55.630;37.864;2022-11-12T04:58:17;2.30;;;2.03;;
53714;SDS011;39608;55.630;37.864;2022-11-12T05:03:20;2.60;;;1.70;;
53714;SDS011;39608;55.630;37.864;2022-11-12T05:08:22;1.98;;;1.77;;
53714;SDS011;39608;55.630;37.864;2022-11-12T05:13:27;2.08;;;1.85;;
53714;SDS011;39608;55.630;37.864;2022-11-12T05:18:29;2.70;;;1.98;;
53714;SDS011;39608;55.630;37.864;2022-11-12T05:23:31;3.13;;;1.90;;
53714;SDS011;39608;55.630;37.864;2022-11-12T05:28:35;2.13;;;1.60;;
53714;SDS011;39608;55.630;37.864;2022-11-12T05:33:37;1.77;;;1.65;;
53714;SDS011;39608;55.630;37.864;2022-11-12T05:38:39;3.08;;;2.00;;
53714;SDS011;39608;55.630;37.864;2022-11-12T05:43:43;3.72;;;1.80;;
53714;SDS011;39608;55.630;37.864;2022-11-12T05:48:45;2.55;;;1.80;;
53714;SDS011;39608;55.630;37.864;2022-11-12T05:53:47;2.05;;;1.77;;
53714;SDS011;39608;55.630;37.864;2022-11-12T05:58:50;2.65;;;1.80;;
53714;SDS011;39608;55.630;37.864;2022-11-12T06:03:52;1.98;;;1.65;;
53714;SDS011;39608;55.630;37.864;2022-11-12T06:08:54;3.22;;;1.70;;
53714;SDS011;39608;55.630;37.864;2022-11-12T06:13:58;1.63;;;1.52;;
53714;SDS011;39608;55.630;37.864;2022-11-12T06:19:00;3.97;;;1.75;;
53714;SDS011;39608;55.630;37.864;2022-11-12T06:24:04;2.35;;;1.85;;
53714;SDS011;39608;55.630;37.864;2022-11-12T06:29:08;2.53;;;2.00;;
53714;SDS011;39608;55.630;37.864;2022-11-12T06:34:10;2.20;;;1.60;;
53714;SDS011;39608;55.630;37.864;2022-11-12T06:39:12;2.70;;;2.13;;
53714;SDS011;39608;55.630;37.864;2022-11-12T06:44:16;3.05;;;1.35;;
53714;SDS011;39608;55.630;37.864;2022-11-12T06:49:18;1.77;;;1.45;;
53714;SDS011;39608;55.630;37.864;2022-11-12T06:54:20;2.35;;;1.67;;
53714;SDS011;39608;55.630;37.864;2022-11-12T06:59:24;2.03;;;1.60;;
53714;SDS011;39608;55.630;37.864;2022-11-12T07:04:26;1.55;;;1.45;;
53714;SDS011;39608;55.630;37.864;2022-11-12T07:09:28;2.30;;;1.50;;
53714;SDS011;39608;55.630;37.864;2022-11-12T07:14:31;2.50;;;1.33;;
53714;SDS011;39608;55.630;37.864;2022-11-12T07:19:33;6.43;;;1.42;;
53714;SDS011;39608;55.630;37.864;2022-11-12T07:24:35;1.40;;;1.30;;
53714;SDS011;39608;55.630;37.864;2022-11-12T07:29:39;1.33;;;1.05;;
53714;SDS011;39608;55.630;37.864;2022-11-12T07:34:41;1.45;;;1.10;;
53714;SDS011;39608;55.630;37.864;2022-11-12T07:39:44;1.30;;;1.20;;
53714;SDS011;39608;55.630;37.864;2022-11-12T07:44:47;1.50;;;1.05;;
53714;SDS011;39608;55.630;37.864;2022-11-12T07:49:49;2.40;;;0.90;;
53714;SDS011;39608;55.630;37.864;2022-11-12T07:54:51;2.10;;;1.40;;
53714;SDS011;39608;55.630;37.864;2022-11-12T07:59:55;1.70;;;1.20;;
53714;SDS011;39608;55.630;37.864;2022-11-12T08:04:57;1.92;;;1.00;;
53714;SDS011;39608;55.630;37.864;2022-11-12T08:10:00;1.67;;;1.00;;
53714;SDS011;39608;55.630;37.864;2022-11-12T08:15:06;1.42;;;1.27;;
53714;SDS011;39608;55.630;37.864;2022-11-12T08:20:08;1.13;;;1.10;;
53714;SDS011;39608;55.630;37.864;2022-11-12T08:25:12;1.15;;;1.08;;
53714;SDS011;39608;55.630;37.864;2022-11-12T08:30:20;1.10;;;1.00;;
53714;SDS011;39608;55.630;37.864;2022-11-12T08:35:22;1.25;;;0.73;;
53714;SDS011;39608;55.630;37.864;2022-11-12T08:40:25;1.08;;;0.80;;
53714;SDS011;39608;55.630;37.864;2022-11-12T08:45:34;0.97;;;0.97;;
53714;SDS011;39608;55.630;37.864;2022-11-12T08:50:37;0.90;;;0.90;;
53714;SDS011;39608;55.630;37.864;2022-11-12T08:55:39;1.20;;;1.10;;
53714;SDS011;39608;55.630;37.864;2022-11-12T09:00:43;1.88;;;0.77;;
53714;SDS011;39608;55.630;37.864;2022-11-12T09:05:46;1.45;;;0.90;;
53714;SDS011;39608;55.630;37.864;2022-11-12T09:10:48;1.30;;;0.88;;
53714;SDS011;39608;55.630;37.864;2022-11-12T09:15:53;2.78;;;1.13;;
53714;SDS011;39608;55.630;37.864;2022-11-12T09:21:00;0.77;;;0.70;;
53714;SDS011;39608;55.630;37.864;2022-11-12T09:26:04;2.28;;;0.70;;
53714;SDS011;39608;55.630;37.864;2022-11-12T09:31:08;0.73;;;0.70;;
53714;SDS011;39608;55.630;37.864;2022-11-12T09:36:10;0.95;;;0.80;;
53714;SDS011;39608;55.630;37.864;2022-11-12T09:41:17;3.15;;;1.10;;
53714;SDS011;39608;55.630;37.864;2022-11-12T09:46:27;0.90;;;0.90;;
53714;SDS011;39608;55.630;37.864;2022-11-12T09:51:34;0.70;;;0.70;;
53714;SDS011;39608;55.630;37.864;2022-11-12T09:56:40;0.75;;;0.68;;
53714;SDS011;39608;55.630;37.864;2022-11-12T10:01:48;1.27;;;0.90;;
53714;SDS011;39608;55.630;37.864;2022-11-12T10:07:00;2.15;;;1.00;;
53714;SDS011;39608;55.630;37.864;2022-11-12T10:12:11;1.15;;;0.52;;
53714;SDS011;39608;55.630;37.864;2022-11-12T10:17:36;0.93;;;0.80;;
53714;SDS011;39608;55.630;37.864;2022-11-12T10:22:53;0.73;;;0.73;;
53714;SDS011;39608;55.630;37.864;2022-11-12T10:28:10;0.70;;;0.70;;
53714;SDS011;39608;55.630;37.864;2022-11-12T10:33:23;0.90;;;0.90;;
53714;SDS011;39608;55.630;37.864;2022-11-12T10:38:25;0.75;;;0.75;;
53714;SDS011;39608;55.630;37.864;2022-11-12T10:43:28;0.75;;;0.60;;
53714;SDS011;39608;55.630;37.864;2022-11-12T10:48:32;1.13;;;0.90;;
53714;SDS011;39608;55.630;37.864;2022-11-12T10:53:37;0.77;;;0.73;;
53714;SDS011;39608;55.630;37.864;2022-11-12T10:58:40;5.20;;;0.80;;
53714;SDS011;39608;55.630;37.864;2022-11-12T11:03:46;1.30;;;0.90;;
53714;SDS011;39608;55.630;37.864;2022-11-12T11:09:07;1.95;;;0.90;;
53714;SDS011;39608;55.630;37.864;2022-11-12T11:19:38;0.95;;;0.63;;
53714;SDS011;39608;55.630;37.864;2022-11-12T11:24:43;1.90;;;0.80;;
53714;SDS011;39608;55.630;37.864;2022-11-12T11:30:00;0.73;;;0.60;;
53714;SDS011;39608;55.630;37.864;2022-11-12T11:35:16;2.38;;;0.98;;
53714;SDS011;39608;55.630;37.864;2022-11-12T11:40:25;1.65;;;0.80;;
53714;SDS011;39608;55.630;37.864;2022-11-12T11:45:32;1.88;;;0.98;;
53714;SDS011;39608;55.630;37.864;2022-11-12T11:50:50;3.25;;;1.33;;
53714;SDS011;39608;55.630;37.864;2022-11-12T11:56:01;4.80;;;1.25;;
53714;SDS011;39608;55.630;37.864;2022-11-12T12:01:08;1.73;;;0.73;;
53714;SDS011;39608;55.630;37.864;2022-11-12T12:06:22;1.00;;;0.80;;
53714;SDS011;39608;55.630;37.864;2022-11-12T12:11:29;3.13;;;0.80;;
53714;SDS011;39608;55.630;37.864;2022-11-12T12:16:45;0.98;;;0.93;;
53714;SDS011;39608;55.630;37.864;2022-11-12T12:21:57;1.65;;;1.05;;
53714;SDS011;39608;55.630;37.864;2022-11-12T12:27:03;2.53;;;0.60;;
53714;SDS011;39608;55.630;37.864;2022-11-12T12:32:11;0.93;;;0.60;;
53714;SDS011;39608;55.630;37.864;2022-11-12T12:37:21;3.55;;;0.88;;
53714;SDS011;39608;55.630;37.864;2022-11-12T12:42:28;1.38;;;0.98;;
53714;SDS011;39608;55.630;37.864;2022-11-12T12:47:38;0.90;;;0.70;;
53714;SDS011;39608;55.630;37.864;2022-11-12T12:53:00;0.88;;;0.68;;
53714;SDS011;39608;55.630;37.864;2022-11-12T12:58:08;0.57;;;0.57;;
53714;SDS011;39608;55.630;37.864;2022-11-12T13:08:57;1.80;;;0.80;;
53714;SDS011;39608;55.630;37.864;2022-11-12T13:14:14;1.00;;;0.85;;
53714;SDS011;39608;55.630;37.864;2022-11-12T13:25:25;1.13;;;0.88;;
53714;SDS011;39608;55.630;37.864;2022-11-12T13:41:20;0.80;;;0.80;;
53714;SDS011;39608;55.630;37.864;2022-11-12T13:46:37;1.88;;;1.15;;
53714;SDS011;39608;55.630;37.864;2022-11-12T13:51:40;0.80;;;0.80;;
53714;SDS011;39608;55.630;37.864;2022-11-12T13:56:46;1.05;;;0.80;;
53714;SDS011;39608;55.630;37.864;2022-11-12T14:01:48;1.00;;;0.82;;
53714;SDS011;39608;55.630;37.864;2022-11-12T14:06:51;0.95;;;0.90;;
53714;SDS011;39608;55.630;37.864;2022-11-12T14:12:12;1.65;;;1.00;;
53714;SDS011;39608;55.630;37.864;2022-11-12T14:17:36;1.45;;;0.80;;
53714;SDS011;39608;55.630;37.864;2022-11-12T14:22:46;2.13;;;0.70;;
53714;SDS011;39608;55.630;37.864;2022-11-12T14:27:50;0.85;;;0.80;;
53714;SDS011;39608;55.630;37.864;2022-11-12T14:32:56;1.35;;;1.00;;
53714;SDS011;39608;55.630;37.864;2022-11-12T14:38:03;1.00;;;0.90;;
53714;SDS011;39608;55.630;37.864;2022-11-12T14:43:19;1.70;;;0.60;;
53714;SDS011;39608;55.630;37.864;2022-11-12T14:48:27;1.10;;;0.90;;
53714;SDS011;39608;55.630;37.864;2022-11-12T14:53:31;1.45;;;0.70;;
53714;SDS011;39608;55.630;37.864;2022-11-12T14:58:40;2.38;;;0.60;;
53714;SDS011;39608;55.630;37.864;2022-11-12T15:03:43;1.20;;;0.88;;
53714;SDS011;39608;55.630;37.864;2022-11-12T15:08:54;4.00;;;0.70;;
53714;SDS011;39608;55.630;37.864;2022-11-12T15:14:01;4.60;;;0.90;;
53714;SDS011;39608;55.630;37.864;2022-11-12T15:19:06;1.17;;;0.90;;
53714;SDS011;39608;55.630;37.864;2022-11-12T15:24:18;2.33;;;0.63;;
53714;SDS011;39608;55.630;37.864;2022-11-12T15:29:28;0.98;;;0.70;;
53714;SDS011;39608;55.630;37.864;2022-11-12T15:34:33;1.38;;;0.90;;
53714;SDS011;39608;55.630;37.864;2022-11-12T15:39:46;0.60;;;0.60;;
53714;SDS011;39608;55.630;37.864;2022-11-12T15:44:52;0.50;;;0.50;;
53714;SDS011;39608;55.630;37.864;2022-11-12T15:49:59;2.58;;;0.80;;
53714;SDS011;39608;55.630;37.864;2022-11-12T15:55:11;1.35;;;0.70;;
53714;SDS011;39608;55.630;37.864;2022-11-12T16:00:16;4.30;;;1.05;;
53714;SDS011;39608;55.630;37.864;2022-11-12T16:05:19;3.30;;;0.77;;
53714;SDS011;39608;55.630;37.864;2022-11-12T16:10:22;0.65;;;0.60;;
53714;SDS011;39608;55.630;37.864;2022-11-12T16:15:25;2.03;;;0.95;;
53714;SDS011;39608;55.630;37.864;2022-11-12T16:20:28;2.83;;;0.70;;
53714;SDS011;39608;55.630;37.864;2022-11-12T16:25:33;2.22;;;1.00;;
53714;SDS011;39608;55.630;37.864;2022-11-12T16:30:37;2.97;;;1.23;;
53714;SDS011;39608;55.630;37.864;2022-11-12T16:35:41;6.75;;;1.13;;
53714;SDS011;39608;55.630;37.864;2022-11-12T16:40:43;1.35;;;0.80;;
53714;SDS011;39608;55.630;37.864;2022-11-12T16:45:49;3.22;;;1.25;;
53714;SDS011;39608;55.630;37.864;2022-11-12T16:50:51;1.00;;;0.90;;
53714;SDS011;39608;55.630;37.864;2022-11-12T16:55:53;1.48;;;0.88;;
53714;SDS011;39608;55.630;37.864;2022-11-12T17:00:58;4.88;;;0.98;;
53714;SDS011;39608;55.630;37.864;2022-11-12T17:06:00;4.53;;;1.10;;
53714;SDS011;39608;55.630;37.864;2022-11-12T17:11:07;3.47;;;1.10;;
53714;SDS011;39608;55.630;37.864;2022-11-12T17:16:11;2.50;;;1.00;;
53714;SDS011;39608;55.630;37.864;2022-11-12T17:21:14;7.18;;;1.10;;
53714;SDS011;39608;55.630;37.864;2022-11-12T17:26:18;7.95;;;1.15;;
53714;SDS011;39608;55.630;37.864;2022-11-12T17:31:22;6.53;;;1.20;;
53714;SDS011;39608;55.630;37.864;2022-11-12T17:36:25;6.38;;;1.10;;
53714;SDS011;39608;55.630;37.864;2022-11-12T17:41:28;3.38;;;1.20;;
53714;SDS011;39608;55.630;37.864;2022-11-12T17:46:31;3.85;;;1.38;;
53714;SDS011;39608;55.630;37.864;2022-11-12T17:51:35;7.97;;;1.67;;
53714;SDS011;39608;55.630;37.864;2022-11-12T17:56:37;2.47;;;0.80;;
53714;SDS011;39608;55.630;37.864;2022-11-12T18:01:41;3.33;;;1.10;;
53714;SDS011;39608;55.630;37.864;2022-11-12T18:06:43;5.78;;;1.27;;
53714;SDS011;39608;55.630;37.864;2022-11-12T18:11:46;2.15;;;1.10;;
53714;SDS011;39608;55.630;37.864;2022-11-12T18:16:53;5.20;;;0.70;;
53714;SDS011;39608;55.630;37.864;2022-11-12T18:21:57;4.07;;;1.00;;
53714;SDS011;39608;55.630;37.864;2022-11-12T18:27:01;2.50;;;1.10;;
53714;SDS011;39608;55.630;37.864;2022-11-12T18:32:05;4.93;;;1.20;;
53714;SDS011;39608;55.630;37.864;2022-11-12T18:37:09;3.45;;;1.00;;
53714;SDS011;39608;55.630;37.864;2022-11-12T18:42:11;4.18;;;1.40;;
53714;SDS011;39608;55.630;37.864;2022-11-12T18:47:14;3.58;;;1.20;;
53714;SDS011;39608;55.630;37.864;2022-11-12T18:52:16;3.75;;;1.30;;
53714;SDS011;39608;55.630;37.864;2022-11-12T18:57:18;4.70;;;1.20;;
53714;SDS011;39608;55.630;37.864;2022-11-12T19:02:23;5.05;;;1.05;;
53714;SDS011;39608;55.630;37.864;2022-11-12T19:07:25;7.80;;;1.17;;
53714;SDS011;39608;55.630;37.864;2022-11-12T19:12:27;2.95;;;0.98;;
53714;SDS011;39608;55.630;37.864;2022-11-12T19:17:31;5.13;;;1.27;;
53714;SDS011;39608;55.630;37.864;2022-11-12T19:22:35;3.20;;;0.98;;
53714;SDS011;39608;55.630;37.864;2022-11-12T19:27:37;3.72;;;0.90;;
53714;SDS011;39608;55.630;37.864;2022-11-12T19:32:40;3.17;;;1.20;;
53714;SDS011;39608;55.630;37.864;2022-11-12T19:37:42;3.38;;;0.80;;
53714;SDS011;39608;55.630;37.864;2022-11-12T19:42:45;4.88;;;0.90;;
53714;SDS011;39608;55.630;37.864;2022-11-12T19:47:48;5.43;;;1.50;;
53714;SDS011;39608;55.630;37.864;2022-11-12T19:52:51;4.07;;;1.38;;
53714;SDS011;39608;55.630;37.864;2022-11-12T19:57:54;5.57;;;1.48;;
53714;SDS011;39608;55.630;37.864;2022-11-12T20:02:58;15.73;;;1.80;;
53714;SDS011;39608;55.630;37.864;2022-11-12T20:08:00;4.82;;;1.05;;
53714;SDS011;39608;55.630;37.864;2022-11-12T20:13:02;3.63;;;1.27;;
53714;SDS011;39608;55.630;37.864;2022-11-12T20:18:07;9.65;;;2.08;;
53714;SDS011;39608;55.630;37.864;2022-11-12T20:23:09;5.03;;;1.20;;
53714;SDS011;39608;55.630;37.864;2022-11-12T20:28:12;2.80;;;0.88;;
53714;SDS011;39608;55.630;37.864;2022-11-12T20:33:15;5.95;;;1.10;;
53714;SDS011;39608;55.630;37.864;2022-11-12T20:38:17;7.43;;;0.93;;
53714;SDS011;39608;55.630;37.864;2022-11-12T20:43:19;3.65;;;1.15;;
53714;SDS011;39608;55.630;37.864;2022-11-12T20:48:23;6.05;;;1.38;;
53714;SDS011;39608;55.630;37.864;2022-11-12T20:53:25;4.82;;;1.20;;
53714;SDS011;39608;55.630;37.864;2022-11-12T20:58:27;7.85;;;1.65;;
53714;SDS011;39608;55.630;37.864;2022-11-12T21:03:31;8.63;;;2.00;;
53714;SDS011;39608;55.630;37.864;2022-11-12T21:08:34;3.58;;;1.23;;
53714;SDS011;39608;55.630;37.864;2022-11-12T21:13:37;7.65;;;1.45;;
53714;SDS011;39608;55.630;37.864;2022-11-12T21:18:41;4.15;;;1.27;;
53714;SDS011;39608;55.630;37.864;2022-11-12T21:23:43;8.48;;;1.13;;
53714;SDS011;39608;55.630;37.864;2022-11-12T21:28:48;6.07;;;1.00;;
53714;SDS011;39608;55.630;37.864;2022-11-12T21:33:53;5.93;;;1.50;;
53714;SDS011;39608;55.630;37.864;2022-11-12T21:38:57;5.72;;;1.10;;
53714;SDS011;39608;55.630;37.864;2022-11-12T21:43:59;4.13;;;1.30;;
53714;SDS011;39608;55.630;37.864;2022-11-12T21:49:03;4.65;;;1.60;;
53714;SDS011;39608;55.630;37.864;2022-11-12T21:54:07;7.47;;;1.23;;
53714;SDS011;39608;55.630;37.864;2022-11-12T21:59:09;2.75;;;0.90;;
53714;SDS011;39608;55.630;37.864;2022-11-12T22:04:13;3.22;;;1.10;;
53714;SDS011;39608;55.630;37.864;2022-11-12T22:09:15;7.72;;;1.38;;
53714;SDS011;39608;55.630;37.864;2022-11-12T22:14:20;4.15;;;1.30;;
53714;SDS011;39608;55.630;37.864;2022-11-12T22:19:24;4.05;;;1.35;;
53714;SDS011;39608;55.630;37.864;2022-11-12T22:24:26;1.45;;;0.63;;
53714;SDS011;39608;55.630;37.864;2022-11-12T22:29:28;2.78;;;0.98;;
53714;SDS011;39608;55.630;37.864;2022-11-12T22:34:31;4.25;;;1.02;;
53714;SDS011;39608;55.630;37.864;2022-11-12T22:39:34;4.75;;;0.65;;
53714;SDS011;39608;55.630;37.864;2022-11-12T22:44:36;4.07;;;1.20;;
53714;SDS011;39608;55.630;37.864;2022-11-12T22:49:39;4.63;;;0.60;;
53714;SDS011;39608;55.630;37.864;2022-11-12T22:54:41;0.98;;;0.70;;
53714;SDS011;39608;55.630;37.864;2022-11-12T22:59:43;2.08;;;0.52;;
53714;SDS011;39608;55.630;37.864;2022-11-12T23:04:47;1.50;;;0.43;;
53714;SDS011;39608;55.630;37.864;2022-11-12T23:09:49;4.25;;;0.50;;
53714;SDS011;39608;55.630;37.864;2022-11-12T23:14:51;2.67;;;0.52;;
53714;SDS011;39608;55.630;37.864;2022-11-12T23:19:54;4.05;;;0.80;;
53714;SDS011;39608;55.630;37.864;2022-11-12T23:24:57;4.82;;;0.70;;
53714;SDS011;39608;55.630;37.864;2022-11-12T23:29:59;1.83;;;0.50;;
53714;SDS011;39608;55.630;37.864;2022-11-12T23:35:02;3.72;;;0.50;;
53714;SDS011;39608;55.630;37.864;2022-11-12T23:40:05;1.90;;;0.38;;
53714;SDS011;39608;55.630;37.864;2022-11-12T23:45:09;2.45;;;0.68;;
53714;SDS011;39608;55.630;37.864;2022-11-12T23:50:12;3.42;;;0.80;;
53714;SDS011;39608;55.630;37.864;2022-11-12T23:55:15;1.95;;;0.50;;
